Airfield :
LOGIN :

Register | Disclaimer

   EN    FR    IT 

 










Legend :    VFR   Marginal VFR   IFR   Intensive IFR   Very Intensive IFR
Visi :
Ceiling :
>= 8 km
>= 3000ft
5 to 8 km
1000 to 3000 ft
1500m to 5 km
500 to 1000 ft
800 to 1500m
200 to 500 ft
< 800m
< 200 ft
Symbols :   Thunderstorms  Fog  Heavy snow  Heavy precipitations  Wind > 20 kt
SIGMETs :     Misc.  Thunderstorms  Icing  Turbulence  Mountain Waves  Volcanic Ashes







- Airport Elevation : 195 ft
- Download approach charts


LFMY - Salon de Provence

CURRENT METAR :
  • 241000Z AUTO 29005KT 240V340 CAVOK 20/15 Q1019

EXPIRED METARs :
  • 240930Z AUTO 26004KT 210V300 CAVOK 19/15 Q1019
  • 240900Z AUTO 27003KT 210V330 CAVOK 18/15 Q1019
  • 240830Z AUTO VRB02KT CAVOK 17/15 Q1019
  • 240800Z AUTO 00000KT 9999 SCT005 SCT160 16/14 Q1019
  • 240730Z AUTO 00000KT 9999 BKN004 15/14 Q1019

TAF TAF LFMY
Valid from the 24 at 03:00 until the 25 at 03:00 UTC


240440Z 2403/2503 VRB03KT 3000 BR NSC
TEMPO 2404/2407 0900 BCFG SCT008
BECMG 2407/2409 24010KT CAVOK
No reported NOTAMs for that airfield.



MET'MAP, your aeronautical weather chart ! - Copyright ORBIFLY December 2007 - Disclaimer

ORBIFLY MET'MAP TEAM :

Programming & Development : Alexandra Zaïnal
Concept & Development : Baudouin d'Aumeries
Co-Development & Prog : Marc-Olivier Méhu
Technical & hardware support : Manuel Goepfert

Contact : metmap@orbifly.com




SOURCES & CREDITS :

   NOAA